sensor_id;sensor_type;location;lat;lon;timestamp;pressure;altitude;pressure_sealevel;temperature;humidity
78679;BME280;67994;59.334;13.528;2023-05-14T00:00:00;101900.0;;;11.9;67.7
78679;BME280;67994;59.334;13.528;2023-05-14T00:01:00;101900.0;;;11.9;67.9
78679;BME280;67994;59.334;13.528;2023-05-14T00:02:00;101900.0;;;12.0;67.5
78679;BME280;67994;59.334;13.528;2023-05-14T00:03:00;101900.0;;;12.0;67.3
78679;BME280;67994;59.334;13.528;2023-05-14T00:04:00;101900.0;;;12.0;67.3
78679;BME280;67994;59.334;13.528;2023-05-14T00:05:00;101900.0;;;12.0;67.0
78679;BME280;67994;59.334;13.528;2023-05-14T00:06:00;101900.0;;;12.0;67.5
78679;BME280;67994;59.334;13.528;2023-05-14T00:07:00;101900.0;;;12.0;67.7
78679;BME280;67994;59.334;13.528;2023-05-14T00:08:01;101900.0;;;11.9;68.3
78679;BME280;67994;59.334;13.528;2023-05-14T00:09:00;101900.0;;;11.9;68.3
78679;BME280;67994;59.334;13.528;2023-05-14T00:10:00;101900.0;;;11.9;68.0
78679;BME280;67994;59.334;13.528;2023-05-14T00:11:00;101900.0;;;12.0;67.9
78679;BME280;67994;59.334;13.528;2023-05-14T00:12:00;101900.0;;;12.0;67.9
78679;BME280;67994;59.334;13.528;2023-05-14T00:13:00;101900.0;;;11.9;67.7
78679;BME280;67994;59.334;13.528;2023-05-14T00:14:00;101900.0;;;11.8;68.2
78679;BME280;67994;59.334;13.528;2023-05-14T00:15:00;101900.0;;;11.8;68.2
78679;BME280;67994;59.334;13.528;2023-05-14T00:16:00;101900.0;;;11.8;68.3
78679;BME280;67994;59.334;13.528;2023-05-14T00:17:00;101900.0;;;11.9;68.2
78679;BME280;67994;59.334;13.528;2023-05-14T00:18:00;101900.0;;;11.9;68.0
78679;BME280;67994;59.334;13.528;2023-05-14T00:19:00;101900.0;;;11.9;68.0
78679;BME280;67994;59.334;13.528;2023-05-14T00:20:00;101900.0;;;11.8;68.1
78679;BME280;67994;59.334;13.528;2023-05-14T00:21:00;101900.0;;;11.9;68.1
78679;BME280;67994;59.334;13.528;2023-05-14T00:22:00;101900.0;;;11.9;67.9
78679;BME280;67994;59.334;13.528;2023-05-14T00:23:00;101900.0;;;11.9;68.0
78679;BME280;67994;59.334;13.528;2023-05-14T00:24:00;101900.0;;;11.8;68.4
78679;BME280;67994;59.334;13.528;2023-05-14T00:25:00;101900.0;;;11.8;68.4
78679;BME280;67994;59.334;13.528;2023-05-14T00:26:00;101900.0;;;11.7;68.0
78679;BME280;67994;59.334;13.528;2023-05-14T00:27:00;101900.0;;;11.7;68.4
78679;BME280;67994;59.334;13.528;2023-05-14T00:28:00;101900.0;;;11.7;68.4
78679;BME280;67994;59.334;13.528;2023-05-14T00:29:00;101900.0;;;11.6;68.6
78679;BME280;67994;59.334;13.528;2023-05-14T00:30:00;101900.0;;;11.7;68.0
78679;BME280;67994;59.334;13.528;2023-05-14T00:31:00;101900.0;;;11.7;68.0
78679;BME280;67994;59.334;13.528;2023-05-14T00:32:01;101900.0;;;11.7;67.9
78679;BME280;67994;59.334;13.528;2023-05-14T00:33:00;101900.0;;;11.7;67.7
78679;BME280;67994;59.334;13.528;2023-05-14T00:34:00;101900.0;;;11.7;68.1
78679;BME280;67994;59.334;13.528;2023-05-14T00:35:00;101900.0;;;11.7;68.1
78679;BME280;67994;59.334;13.528;2023-05-14T00:36:00;101900.0;;;11.6;68.4
78679;BME280;67994;59.334;13.528;2023-05-14T00:37:00;101900.0;;;11.5;68.3
78679;BME280;67994;59.334;13.528;2023-05-14T00:38:00;101900.0;;;11.6;68.1
78679;BME280;67994;59.334;13.528;2023-05-14T00:39:00;101900.0;;;11.6;67.8
78679;BME280;67994;59.334;13.528;2023-05-14T00:40:00;101900.0;;;11.5;68.5
78679;BME280;67994;59.334;13.528;2023-05-14T00:41:00;101900.0;;;11.1;69.8
78679;BME280;67994;59.334;13.528;2023-05-14T00:42:00;101900.0;;;11.2;69.8
78679;BME280;67994;59.334;13.528;2023-05-14T00:43:00;101900.0;;;11.1;69.9
78679;BME280;67994;59.334;13.528;2023-05-14T00:44:00;101900.0;;;11.1;69.9
78679;BME280;67994;59.334;13.528;2023-05-14T00:45:00;101900.0;;;11.2;69.7
78679;BME280;67994;59.334;13.528;2023-05-14T00:46:00;101900.0;;;11.2;69.4
78679;BME280;67994;59.334;13.528;2023-05-14T00:47:00;101900.0;;;11.3;69.2
78679;BME280;67994;59.334;13.528;2023-05-14T00:48:00;101900.0;;;11.3;69.0
78679;BME280;67994;59.334;13.528;2023-05-14T00:49:00;101900.0;;;11.3;69.2
78679;BME280;67994;59.334;13.528;2023-05-14T00:50:01;101900.0;;;11.3;68.8
78679;BME280;67994;59.334;13.528;2023-05-14T00:51:00;101900.0;;;11.2;68.7
78679;BME280;67994;59.334;13.528;2023-05-14T00:52:00;101900.0;;;11.2;68.4
78679;BME280;67994;59.334;13.528;2023-05-14T00:53:00;101900.0;;;11.5;67.6
78679;BME280;67994;59.334;13.528;2023-05-14T00:54:00;101900.0;;;11.3;68.0
78679;BME280;67994;59.334;13.528;2023-05-14T00:55:02;101900.0;;;11.2;68.3
78679;BME280;67994;59.334;13.528;2023-05-14T00:56:01;101900.0;;;11.3;68.4
78679;BME280;67994;59.334;13.528;2023-05-14T00:57:00;101900.0;;;11.3;68.7
78679;BME280;67994;59.334;13.528;2023-05-14T00:58:01;101900.0;;;11.1;68.8
78679;BME280;67994;59.334;13.528;2023-05-14T00:59:00;101900.0;;;11.1;68.9
78679;BME280;67994;59.334;13.528;2023-05-14T01:00:00;101900.0;;;11.1;69.0
78679;BME280;67994;59.334;13.528;2023-05-14T01:01:00;101900.0;;;11.1;68.7
78679;BME280;67994;59.334;13.528;2023-05-14T01:02:00;101900.0;;;11.1;68.8
78679;BME280;67994;59.334;13.528;2023-05-14T01:03:01;101900.0;;;11.1;69.2
78679;BME280;67994;59.334;13.528;2023-05-14T01:04:00;101900.0;;;11.1;69.2
78679;BME280;67994;59.334;13.528;2023-05-14T01:05:01;101900.0;;;10.9;69.6
78679;BME280;67994;59.334;13.528;2023-05-14T01:06:05;101900.0;;;11.0;69.4
78679;BME280;67994;59.334;13.528;2023-05-14T01:07:08;101900.0;;;11.0;69.9
78679;BME280;67994;59.334;13.528;2023-05-14T01:08:03;101900.0;;;10.8;70.0
78679;BME280;67994;59.334;13.528;2023-05-14T01:09:04;101900.0;;;10.6;71.0
78679;BME280;67994;59.334;13.528;2023-05-14T01:10:04;101900.0;;;10.6;71.0
78679;BME280;67994;59.334;13.528;2023-05-14T01:11:04;101900.0;;;10.7;71.0
78679;BME280;67994;59.334;13.528;2023-05-14T01:12:07;101900.0;;;10.9;70.2
78679;BME280;67994;59.334;13.528;2023-05-14T01:13:07;101900.0;;;10.9;70.2
78679;BME280;67994;59.334;13.528;2023-05-14T01:14:04;101900.0;;;10.9;69.9
78679;BME280;67994;59.334;13.528;2023-05-14T01:15:03;101900.0;;;11.0;69.5
78679;BME280;67994;59.334;13.528;2023-05-14T01:16:02;101900.0;;;11.1;69.0
78679;BME280;67994;59.334;13.528;2023-05-14T01:17:03;101900.0;;;11.1;68.7
78679;BME280;67994;59.334;13.528;2023-05-14T01:18:03;101900.0;;;11.1;68.9
78679;BME280;67994;59.334;13.528;2023-05-14T01:19:01;101900.0;;;11.0;68.8
78679;BME280;67994;59.334;13.528;2023-05-14T01:20:01;101900.0;;;11.0;68.9
78679;BME280;67994;59.334;13.528;2023-05-14T01:21:00;101900.0;;;11.1;68.8
78679;BME280;67994;59.334;13.528;2023-05-14T01:22:00;101900.0;;;11.0;68.8
78679;BME280;67994;59.334;13.528;2023-05-14T01:23:00;101900.0;;;11.1;68.8
78679;BME280;67994;59.334;13.528;2023-05-14T01:24:00;101900.0;;;11.1;68.7
78679;BME280;67994;59.334;13.528;2023-05-14T01:25:00;101900.0;;;11.1;68.8
78679;BME280;67994;59.334;13.528;2023-05-14T01:26:00;101900.0;;;11.1;68.9
78679;BME280;67994;59.334;13.528;2023-05-14T01:27:04;101900.0;;;11.0;69.3
78679;BME280;67994;59.334;13.528;2023-05-14T01:28:05;101900.0;;;11.0;69.1
78679;BME280;67994;59.334;13.528;2023-05-14T01:29:05;101900.0;;;11.0;69.3
78679;BME280;67994;59.334;13.528;2023-05-14T01:30:08;101900.0;;;11.0;69.3
78679;BME280;67994;59.334;13.528;2023-05-14T01:31:05;101900.0;;;11.0;69.5
78679;BME280;67994;59.334;13.528;2023-05-14T01:32:03;101900.0;;;11.0;69.6
78679;BME280;67994;59.334;13.528;2023-05-14T01:33:10;101900.0;;;11.0;69.6
78679;BME280;67994;59.334;13.528;2023-05-14T01:34:01;101900.0;;;11.1;69.5
78679;BME280;67994;59.334;13.528;2023-05-14T01:35:00;101900.0;;;11.0;69.6
78679;BME280;67994;59.334;13.528;2023-05-14T01:36:00;101900.0;;;11.0;69.6
78679;BME280;67994;59.334;13.528;2023-05-14T01:37:00;101900.0;;;11.0;69.8
78679;BME280;67994;59.334;13.528;2023-05-14T01:38:02;101900.0;;;11.0;70.1
78679;BME280;67994;59.334;13.528;2023-05-14T01:39:01;101900.0;;;11.0;70.3
78679;BME280;67994;59.334;13.528;2023-05-14T01:40:01;101900.0;;;11.1;69.3
78679;BME280;67994;59.334;13.528;2023-05-14T01:41:01;101900.0;;;11.1;69.4
78679;BME280;67994;59.334;13.528;2023-05-14T01:42:01;101900.0;;;11.2;69.4
78679;BME280;67994;59.334;13.528;2023-05-14T01:43:01;101900.0;;;11.2;69.7
78679;BME280;67994;59.334;13.528;2023-05-14T01:44:00;101900.0;;;11.1;70.2
78679;BME280;67994;59.334;13.528;2023-05-14T01:45:01;101900.0;;;11.1;70.6
78679;BME280;67994;59.334;13.528;2023-05-14T01:46:00;101900.0;;;11.1;70.2
78679;BME280;67994;59.334;13.528;2023-05-14T01:47:00;101900.0;;;11.1;69.9
78679;BME280;67994;59.334;13.528;2023-05-14T01:48:00;101900.0;;;11.1;69.4
78679;BME280;67994;59.334;13.528;2023-05-14T01:49:00;101900.0;;;11.1;69.7
78679;BME280;67994;59.334;13.528;2023-05-14T01:50:00;101900.0;;;11.1;69.8
78679;BME280;67994;59.334;13.528;2023-05-14T01:51:00;101900.0;;;11.1;69.9
78679;BME280;67994;59.334;13.528;2023-05-14T01:52:00;101900.0;;;11.1;70.2
78679;BME280;67994;59.334;13.528;2023-05-14T01:53:00;101900.0;;;11.1;70.2
78679;BME280;67994;59.334;13.528;2023-05-14T01:54:00;101900.0;;;11.0;70.7
78679;BME280;67994;59.334;13.528;2023-05-14T01:55:00;101900.0;;;11.1;70.5
78679;BME280;67994;59.334;13.528;2023-05-14T01:56:00;101900.0;;;11.1;70.7
78679;BME280;67994;59.334;13.528;2023-05-14T01:57:00;101900.0;;;11.2;70.8
78679;BME280;67994;59.334;13.528;2023-05-14T01:58:00;101900.0;;;11.1;70.9
78679;BME280;67994;59.334;13.528;2023-05-14T01:59:00;101900.0;;;11.1;70.9
78679;BME280;67994;59.334;13.528;2023-05-14T02:00:00;101900.0;;;11.2;71.0
78679;BME280;67994;59.334;13.528;2023-05-14T02:01:00;101900.0;;;11.1;71.4
78679;BME280;67994;59.334;13.528;2023-05-14T02:02:00;101900.0;;;11.2;71.6
78679;BME280;67994;59.334;13.528;2023-05-14T02:03:00;101900.0;;;11.1;72.0
78679;BME280;67994;59.334;13.528;2023-05-14T02:04:00;101900.0;;;11.1;71.8
78679;BME280;67994;59.334;13.528;2023-05-14T02:05:00;101900.0;;;11.1;71.7
78679;BME280;67994;59.334;13.528;2023-05-14T02:06:00;101900.0;;;11.2;71.8
78679;BME280;67994;59.334;13.528;2023-05-14T02:07:00;101900.0;;;11.1;71.8
78679;BME280;67994;59.334;13.528;2023-05-14T02:08:00;101900.0;;;11.0;72.1
78679;BME280;67994;59.334;13.528;2023-05-14T02:09:01;101900.0;;;11.0;72.0
78679;BME280;67994;59.334;13.528;2023-05-14T02:10:00;101900.0;;;11.1;71.9
78679;BME280;67994;59.334;13.528;2023-05-14T02:11:00;101900.0;;;11.1;71.8
78679;BME280;67994;59.334;13.528;2023-05-14T02:12:00;101900.0;;;11.1;71.5
78679;BME280;67994;59.334;13.528;2023-05-14T02:13:01;101900.0;;;11.1;71.8
78679;BME280;67994;59.334;13.528;2023-05-14T02:14:00;101900.0;;;11.0;72.3
78679;BME280;67994;59.334;13.528;2023-05-14T02:15:00;101900.0;;;11.1;70.9
78679;BME280;67994;59.334;13.528;2023-05-14T02:16:00;101900.0;;;11.1;70.9
78679;BME280;67994;59.334;13.528;2023-05-14T02:17:00;101900.0;;;11.2;70.8
78679;BME280;67994;59.334;13.528;2023-05-14T02:18:00;101900.0;;;11.1;71.0
78679;BME280;67994;59.334;13.528;2023-05-14T02:19:00;101900.0;;;11.1;71.2
78679;BME280;67994;59.334;13.528;2023-05-14T02:20:00;101900.0;;;11.0;71.8
78679;BME280;67994;59.334;13.528;2023-05-14T02:21:00;101900.0;;;11.1;71.0
78679;BME280;67994;59.334;13.528;2023-05-14T02:22:00;101900.0;;;11.0;71.1
78679;BME280;67994;59.334;13.528;2023-05-14T02:23:00;101900.0;;;11.0;71.7
78679;BME280;67994;59.334;13.528;2023-05-14T02:24:00;101900.0;;;11.0;71.9
78679;BME280;67994;59.334;13.528;2023-05-14T02:25:00;101900.0;;;11.0;71.8
78679;BME280;67994;59.334;13.528;2023-05-14T02:26:00;101900.0;;;11.0;71.7
78679;BME280;67994;59.334;13.528;2023-05-14T02:27:00;101900.0;;;11.0;72.2
78679;BME280;67994;59.334;13.528;2023-05-14T02:28:00;101900.0;;;11.0;73.2
78679;BME280;67994;59.334;13.528;2023-05-14T02:29:00;101900.0;;;10.9;73.7
78679;BME280;67994;59.334;13.528;2023-05-14T02:30:00;101900.0;;;10.9;74.3
78679;BME280;67994;59.334;13.528;2023-05-14T02:31:00;101900.0;;;11.0;73.8
78679;BME280;67994;59.334;13.528;2023-05-14T02:32:00;101900.0;;;11.0;73.6
78679;BME280;67994;59.334;13.528;2023-05-14T02:33:00;101900.0;;;11.0;74.4
78679;BME280;67994;59.334;13.528;2023-05-14T02:34:01;101900.0;;;11.1;74.9
78679;BME280;67994;59.334;13.528;2023-05-14T02:35:00;101900.0;;;11.1;74.9
78679;BME280;67994;59.334;13.528;2023-05-14T02:36:00;101900.0;;;11.1;74.4
78679;BME280;67994;59.334;13.528;2023-05-14T02:37:00;101900.0;;;11.1;74.8
78679;BME280;67994;59.334;13.528;2023-05-14T02:38:00;101900.0;;;11.0;74.0
78679;BME280;67994;59.334;13.528;2023-05-14T02:39:00;101900.0;;;10.9;74.1
78679;BME280;67994;59.334;13.528;2023-05-14T02:40:00;101900.0;;;11.0;74.4
78679;BME280;67994;59.334;13.528;2023-05-14T02:41:00;101900.0;;;11.1;74.4
78679;BME280;67994;59.334;13.528;2023-05-14T02:42:03;101900.0;;;10.8;76.5
78679;BME280;67994;59.334;13.528;2023-05-14T02:43:00;101900.0;;;10.9;76.8
78679;BME280;67994;59.334;13.528;2023-05-14T02:44:00;101900.0;;;11.0;76.5
78679;BME280;67994;59.334;13.528;2023-05-14T02:45:00;101900.0;;;11.0;76.9
78679;BME280;67994;59.334;13.528;2023-05-14T02:46:00;101900.0;;;10.9;77.3
78679;BME280;67994;59.334;13.528;2023-05-14T02:47:00;101900.0;;;10.9;76.3
78679;BME280;67994;59.334;13.528;2023-05-14T02:48:00;101900.0;;;11.0;76.4
78679;BME280;67994;59.334;13.528;2023-05-14T02:49:00;101900.0;;;10.9;76.7
78679;BME280;67994;59.334;13.528;2023-05-14T02:50:00;101900.0;;;11.0;76.9
78679;BME280;67994;59.334;13.528;2023-05-14T02:51:01;101900.0;;;10.9;76.9
78679;BME280;67994;59.334;13.528;2023-05-14T02:52:00;101900.0;;;10.9;76.9
78679;BME280;67994;59.334;13.528;2023-05-14T02:53:00;101900.0;;;10.9;77.1
78679;BME280;67994;59.334;13.528;2023-05-14T02:54:00;101900.0;;;10.8;76.5
78679;BME280;67994;59.334;13.528;2023-05-14T02:55:00;101900.0;;;10.9;76.2
78679;BME280;67994;59.334;13.528;2023-05-14T02:56:00;101900.0;;;11.1;75.9
78679;BME280;67994;59.334;13.528;2023-05-14T02:57:00;101900.0;;;11.0;77.0
78679;BME280;67994;59.334;13.528;2023-05-14T02:58:00;101900.0;;;11.0;76.1
78679;BME280;67994;59.334;13.528;2023-05-14T02:59:00;101900.0;;;11.0;75.1
78679;BME280;67994;59.334;13.528;2023-05-14T03:00:00;101900.0;;;11.1;75.8
78679;BME280;67994;59.334;13.528;2023-05-14T03:01:00;101900.0;;;11.1;75.4
78679;BME280;67994;59.334;13.528;2023-05-14T03:02:00;101900.0;;;11.2;75.2
78679;BME280;67994;59.334;13.528;2023-05-14T03:03:00;101900.0;;;11.2;74.5
78679;BME280;67994;59.334;13.528;2023-05-14T03:04:00;101900.0;;;11.3;74.1
78679;BME280;67994;59.334;13.528;2023-05-14T03:05:00;101900.0;;;11.3;74.5
78679;BME280;67994;59.334;13.528;2023-05-14T03:06:00;101900.0;;;11.4;73.7
78679;BME280;67994;59.334;13.528;2023-05-14T03:07:00;101900.0;;;11.6;72.6
78679;BME280;67994;59.334;13.528;2023-05-14T03:08:00;101900.0;;;11.5;73.3
78679;BME280;67994;59.334;13.528;2023-05-14T03:09:00;101900.0;;;11.5;72.7
78679;BME280;67994;59.334;13.528;2023-05-14T03:10:00;101900.0;;;11.5;72.9
78679;BME280;67994;59.334;13.528;2023-05-14T03:11:00;101900.0;;;11.6;72.9
78679;BME280;67994;59.334;13.528;2023-05-14T03:12:00;101900.0;;;11.7;71.9
78679;BME280;67994;59.334;13.528;2023-05-14T03:13:00;101900.0;;;11.7;72.9
78679;BME280;67994;59.334;13.528;2023-05-14T03:14:00;101900.0;;;11.7;72.3
78679;BME280;67994;59.334;13.528;2023-05-14T03:15:00;101900.0;;;11.6;73.4
78679;BME280;67994;59.334;13.528;2023-05-14T03:16:00;101900.0;;;11.6;73.6
78679;BME280;67994;59.334;13.528;2023-05-14T03:17:00;101900.0;;;11.5;74.0
78679;BME280;67994;59.334;13.528;2023-05-14T03:18:00;101900.0;;;11.5;74.1
78679;BME280;67994;59.334;13.528;2023-05-14T03:19:00;101900.0;;;11.5;73.4
78679;BME280;67994;59.334;13.528;2023-05-14T03:20:00;101900.0;;;11.6;73.4
78679;BME280;67994;59.334;13.528;2023-05-14T03:21:00;101900.0;;;11.8;72.0
78679;BME280;67994;59.334;13.528;2023-05-14T03:22:00;101900.0;;;11.9;72.0
78679;BME280;67994;59.334;13.528;2023-05-14T03:23:00;101900.0;;;12.0;72.0
78679;BME280;67994;59.334;13.528;2023-05-14T03:24:00;101900.0;;;12.0;71.4
78679;BME280;67994;59.334;13.528;2023-05-14T03:25:00;101900.0;;;12.2;71.6
78679;BME280;67994;59.334;13.528;2023-05-14T03:26:00;101900.0;;;12.3;71.8
78679;BME280;67994;59.334;13.528;2023-05-14T03:27:00;101900.0;;;12.3;70.2
78679;BME280;67994;59.334;13.528;2023-05-14T03:28:00;101900.0;;;12.4;70.9
78679;BME280;67994;59.334;13.528;2023-05-14T03:29:01;101900.0;;;12.4;70.3
78679;BME280;67994;59.334;13.528;2023-05-14T03:30:00;101900.0;;;12.4;69.9
78679;BME280;67994;59.334;13.528;2023-05-14T03:31:00;101900.0;;;12.5;70.1
78679;BME280;67994;59.334;13.528;2023-05-14T03:32:00;101900.0;;;12.5;70.1
78679;BME280;67994;59.334;13.528;2023-05-14T03:33:00;101900.0;;;12.5;70.4
78679;BME280;67994;59.334;13.528;2023-05-14T03:34:00;101900.0;;;12.5;70.7
78679;BME280;67994;59.334;13.528;2023-05-14T03:35:00;101900.0;;;12.6;70.7
78679;BME280;67994;59.334;13.528;2023-05-14T03:36:00;101900.0;;;12.6;70.7
78679;BME280;67994;59.334;13.528;2023-05-14T03:37:00;101900.0;;;12.8;70.2
78679;BME280;67994;59.334;13.528;2023-05-14T03:38:00;101900.0;;;12.8;70.1
78679;BME280;67994;59.334;13.528;2023-05-14T03:39:00;101900.0;;;12.9;69.8
78679;BME280;67994;59.334;13.528;2023-05-14T03:40:00;101900.0;;;13.0;69.9
78679;BME280;67994;59.334;13.528;2023-05-14T03:41:00;101900.0;;;13.0;70.1
78679;BME280;67994;59.334;13.528;2023-05-14T03:42:00;101900.0;;;13.0;69.7
78679;BME280;67994;59.334;13.528;2023-05-14T03:43:00;101900.0;;;13.1;69.5
78679;BME280;67994;59.334;13.528;2023-05-14T03:44:00;101900.0;;;13.2;69.3
78679;BME280;67994;59.334;13.528;2023-05-14T03:45:00;101900.0;;;13.4;68.9
78679;BME280;67994;59.334;13.528;2023-05-14T03:46:00;101900.0;;;13.5;68.9
78679;BME280;67994;59.334;13.528;2023-05-14T03:47:00;101900.0;;;13.5;69.1
78679;BME280;67994;59.334;13.528;2023-05-14T03:48:00;101900.0;;;13.5;69.1
78679;BME280;67994;59.334;13.528;2023-05-14T03:49:00;101900.0;;;13.4;69.6
78679;BME280;67994;59.334;13.528;2023-05-14T03:50:00;101900.0;;;13.3;69.6
78679;BME280;67994;59.334;13.528;2023-05-14T03:51:00;101900.0;;;13.1;69.6
78679;BME280;67994;59.334;13.528;2023-05-14T03:52:00;101900.0;;;13.1;69.6
78679;BME280;67994;59.334;13.528;2023-05-14T03:53:00;101900.0;;;13.1;69.4
78679;BME280;67994;59.334;13.528;2023-05-14T03:54:00;101900.0;;;13.2;69.5
78679;BME280;67994;59.334;13.528;2023-05-14T03:55:00;101900.0;;;13.5;68.6
78679;BME280;67994;59.334;13.528;2023-05-14T03:56:00;101900.0;;;13.8;68.0
78679;BME280;67994;59.334;13.528;2023-05-14T03:57:00;101900.0;;;13.9;68.0
78679;BME280;67994;59.334;13.528;2023-05-14T03:58:00;101900.0;;;13.9;68.7
78679;BME280;67994;59.334;13.528;2023-05-14T03:59:00;101900.0;;;14.1;68.2
78679;BME280;67994;59.334;13.528;2023-05-14T04:00:00;101900.0;;;14.1;68.3
78679;BME280;67994;59.334;13.528;2023-05-14T04:01:00;101900.0;;;13.8;68.4
78679;BME280;67994;59.334;13.528;2023-05-14T04:02:00;101900.0;;;13.8;68.4
78679;BME280;67994;59.334;13.528;2023-05-14T04:03:00;101900.0;;;14.1;67.6
78679;BME280;67994;59.334;13.528;2023-05-14T04:04:00;101900.0;;;14.3;67.1
78679;BME280;67994;59.334;13.528;2023-05-14T04:05:00;101900.0;;;14.8;65.9
78679;BME280;67994;59.334;13.528;2023-05-14T04:06:00;101900.0;;;14.9;65.6
78679;BME280;67994;59.334;13.528;2023-05-14T04:07:00;101900.0;;;15.0;65.2
78679;BME280;67994;59.334;13.528;2023-05-14T04:08:00;101900.0;;;15.1;64.4
78679;BME280;67994;59.334;13.528;2023-05-14T04:09:00;101900.0;;;15.5;64.1
78679;BME280;67994;59.334;13.528;2023-05-14T04:10:01;101900.0;;;15.7;61.9
78679;BME280;67994;59.334;13.528;2023-05-14T04:11:00;101900.0;;;16.0;62.0
78679;BME280;67994;59.334;13.528;2023-05-14T04:12:00;101900.0;;;15.9;63.1
78679;BME280;67994;59.334;13.528;2023-05-14T04:13:00;101900.0;;;15.9;62.1
78679;BME280;67994;59.334;13.528;2023-05-14T04:14:00;101900.0;;;15.8;63.4
78679;BME280;67994;59.334;13.528;2023-05-14T04:15:00;101900.0;;;15.7;62.7
78679;BME280;67994;59.334;13.528;2023-05-14T04:16:00;101900.0;;;15.8;62.9
78679;BME280;67994;59.334;13.528;2023-05-14T04:17:00;101900.0;;;16.1;62.8
78679;BME280;67994;59.334;13.528;2023-05-14T04:18:00;101900.0;;;16.0;62.6
78679;BME280;67994;59.334;13.528;2023-05-14T04:19:01;101900.0;;;16.2;62.2
78679;BME280;67994;59.334;13.528;2023-05-14T04:20:00;101900.0;;;16.3;62.2
78679;BME280;67994;59.334;13.528;2023-05-14T04:21:00;101900.0;;;16.2;61.9
78679;BME280;67994;59.334;13.528;2023-05-14T04:22:00;101900.0;;;16.6;61.1
78679;BME280;67994;59.334;13.528;2023-05-14T04:23:00;101900.0;;;16.8;60.9
78679;BME280;67994;59.334;13.528;2023-05-14T04:24:00;101900.0;;;16.7;61.4
78679;BME280;67994;59.334;13.528;2023-05-14T04:25:00;101900.0;;;16.7;61.2
78679;BME280;67994;59.334;13.528;2023-05-14T04:26:00;101900.0;;;16.6;61.2
78679;BME280;67994;59.334;13.528;2023-05-14T04:27:00;101900.0;;;16.7;61.8
78679;BME280;67994;59.334;13.528;2023-05-14T04:28:00;101900.0;;;16.7;61.4
78679;BME280;67994;59.334;13.528;2023-05-14T04:29:00;101900.0;;;16.1;62.3
78679;BME280;67994;59.334;13.528;2023-05-14T04:30:00;101900.0;;;15.8;63.4
78679;BME280;67994;59.334;13.528;2023-05-14T04:31:00;101900.0;;;16.0;62.5
78679;BME280;67994;59.334;13.528;2023-05-14T04:32:00;101900.0;;;16.3;62.6
78679;BME280;67994;59.334;13.528;2023-05-14T04:33:00;101900.0;;;16.1;62.4
78679;BME280;67994;59.334;13.528;2023-05-14T04:34:00;101900.0;;;15.0;65.4
78679;BME280;67994;59.334;13.528;2023-05-14T04:35:00;101900.0;;;15.0;65.8
78679;BME280;67994;59.334;13.528;2023-05-14T04:36:00;101900.0;;;15.0;65.0
78679;BME280;67994;59.334;13.528;2023-05-14T04:37:00;101900.0;;;15.3;64.5
78679;BME280;67994;59.334;13.528;2023-05-14T04:38:00;101900.0;;;15.7;64.3
78679;BME280;67994;59.334;13.528;2023-05-14T04:39:00;101900.0;;;15.9;63.2
78679;BME280;67994;59.334;13.528;2023-05-14T04:40:00;101900.0;;;14.8;65.1
78679;BME280;67994;59.334;13.528;2023-05-14T04:41:00;101900.0;;;15.4;63.9
78679;BME280;67994;59.334;13.528;2023-05-14T04:42:00;101900.0;;;14.6;67.0
78679;BME280;67994;59.334;13.528;2023-05-14T04:43:00;101900.0;;;14.0;68.2
78679;BME280;67994;59.334;13.528;2023-05-14T04:44:02;101900.0;;;13.8;69.4
78679;BME280;67994;59.334;13.528;2023-05-14T04:45:00;101900.0;;;13.6;70.0
78679;BME280;67994;59.334;13.528;2023-05-14T04:46:00;101900.0;;;13.5;70.5
78679;BME280;67994;59.334;13.528;2023-05-14T04:47:00;101900.0;;;13.6;70.8
78679;BME280;67994;59.334;13.528;2023-05-14T04:48:01;101900.0;;;13.9;71.1
78679;BME280;67994;59.334;13.528;2023-05-14T04:49:00;101900.0;;;13.4;69.5
78679;BME280;67994;59.334;13.528;2023-05-14T04:50:01;101900.0;;;13.3;71.9
78679;BME280;67994;59.334;13.528;2023-05-14T04:51:00;101900.0;;;13.3;71.8
78679;BME280;67994;59.334;13.528;2023-05-14T04:52:00;101900.0;;;13.4;71.9
78679;BME280;67994;59.334;13.528;2023-05-14T04:53:00;101900.0;;;13.8;72.1
78679;BME280;67994;59.334;13.528;2023-05-14T04:54:00;101900.0;;;13.2;72.6
78679;BME280;67994;59.334;13.528;2023-05-14T04:55:00;101900.0;;;13.4;71.8
78679;BME280;67994;59.334;13.528;2023-05-14T04:56:00;101900.0;;;13.4;70.9
78679;BME280;67994;59.334;13.528;2023-05-14T04:57:00;101900.0;;;14.0;70.6
78679;BME280;67994;59.334;13.528;2023-05-14T04:58:00;101900.0;;;13.4;70.7
78679;BME280;67994;59.334;13.528;2023-05-14T04:59:00;101900.0;;;13.4;71.2
78679;BME280;67994;59.334;13.528;2023-05-14T05:00:00;101900.0;;;14.0;70.1
78679;BME280;67994;59.334;13.528;2023-05-14T05:01:01;101900.0;;;13.3;72.6
78679;BME280;67994;59.334;13.528;2023-05-14T05:02:00;101900.0;;;13.1;72.2
78679;BME280;67994;59.334;13.528;2023-05-14T05:03:00;101900.0;;;13.5;72.2
78679;BME280;67994;59.334;13.528;2023-05-14T05:04:00;101900.0;;;13.4;72.0
78679;BME280;67994;59.334;13.528;2023-05-14T05:05:00;101900.0;;;12.9;73.1
78679;BME280;67994;59.334;13.528;2023-05-14T05:06:00;101900.0;;;13.5;71.8
78679;BME280;67994;59.334;13.528;2023-05-14T05:07:00;101900.0;;;13.5;72.0
78679;BME280;67994;59.334;13.528;2023-05-14T05:08:00;101900.0;;;13.4;71.8
78679;BME280;67994;59.334;13.528;2023-05-14T05:09:00;101900.0;;;13.8;70.2
78679;BME280;67994;59.334;13.528;2023-05-14T05:10:00;101900.0;;;13.9;70.3
78679;BME280;67994;59.334;13.528;2023-05-14T05:11:00;101900.0;;;13.9;70.4
78679;BME280;67994;59.334;13.528;2023-05-14T05:12:00;101900.0;;;14.5;68.9
78679;BME280;67994;59.334;13.528;2023-05-14T05:13:00;101900.0;;;14.3;69.4
78679;BME280;67994;59.334;13.528;2023-05-14T05:14:00;101900.0;;;14.1;69.5
78679;BME280;67994;59.334;13.528;2023-05-14T05:15:00;101900.0;;;13.9;70.0
78679;BME280;67994;59.334;13.528;2023-05-14T05:16:00;101900.0;;;13.6;70.9
78679;BME280;67994;59.334;13.528;2023-05-14T05:17:01;101900.0;;;14.0;70.2
78679;BME280;67994;59.334;13.528;2023-05-14T05:18:00;101900.0;;;14.5;69.0
78679;BME280;67994;59.334;13.528;2023-05-14T05:19:00;101900.0;;;15.0;67.5
78679;BME280;67994;59.334;13.528;2023-05-14T05:20:00;101900.0;;;15.1;68.5
78679;BME280;67994;59.334;13.528;2023-05-14T05:21:00;101900.0;;;14.7;67.3